createdAt,value
2023-05-10T00:01:35.586Z,10.10
2023-05-10T00:04:06.371Z,9.25
2023-05-10T00:06:36.965Z,9.03
2023-05-10T00:09:07.715Z,9.23
2023-05-10T00:11:38.411Z,11.63
2023-05-10T00:14:09.080Z,8.13
2023-05-10T00:16:40.046Z,8.68
2023-05-10T00:19:12.304Z,9.68
2023-05-10T00:21:42.852Z,7.50
2023-05-10T00:24:13.516Z,10.05
2023-05-10T00:26:44.071Z,8.68
2023-05-10T00:29:15.802Z,10.40
2023-05-10T00:31:46.448Z,10.35
2023-05-10T00:34:17.290Z,10.32
2023-05-10T00:36:47.918Z,13.28
2023-05-10T00:39:19.526Z,11.73
2023-05-10T00:41:50.260Z,11.55
2023-05-10T00:44:21.607Z,9.98
2023-05-10T00:46:52.790Z,8.60
2023-05-10T00:49:23.604Z,11.80
2023-05-10T00:51:54.481Z,12.10
2023-05-10T00:54:25.177Z,12.15
2023-05-10T00:56:57.422Z,10.50
2023-05-10T00:59:29.122Z,14.63
2023-05-10T01:02:00.782Z,12.23
2023-05-10T01:04:31.778Z,9.38
2023-05-10T01:07:02.817Z,10.32
2023-05-10T01:09:34.648Z,10.95
2023-05-10T01:12:07.869Z,10.30
2023-05-10T01:14:39.156Z,9.98
2023-05-10T01:17:10.777Z,10.70
2023-05-10T01:19:41.539Z,11.43
2023-05-10T01:22:41.042Z,9.85
2023-05-10T01:25:38.336Z,10.50
2023-05-10T01:28:27.085Z,11.00
2023-05-10T01:31:12.930Z,9.23
2023-05-10T01:33:59.856Z,9.85
2023-05-10T01:36:36.217Z,7.60
2023-05-10T01:39:09.856Z,7.78
2023-05-10T01:41:58.343Z,9.95
2023-05-10T01:44:36.585Z,10.98
2023-05-10T01:47:11.882Z,9.47
2023-05-10T01:49:45.572Z,9.30
2023-05-10T01:52:20.384Z,9.28
2023-05-10T01:55:00.303Z,9.93
2023-05-10T01:57:37.152Z,10.18
2023-05-10T02:00:10.528Z,9.68
2023-05-10T02:02:44.415Z,9.45
2023-05-10T02:05:17.007Z,9.33
2023-05-10T02:07:48.592Z,10.93
2023-05-10T02:10:20.577Z,8.85
2023-05-10T02:12:52.661Z,8.68
2023-05-10T02:15:25.834Z,9.45
2023-05-10T02:17:58.639Z,10.03
2023-05-10T02:20:29.892Z,10.88
2023-05-10T02:23:01.885Z,10.05
2023-05-10T02:25:35.774Z,9.15
2023-05-10T02:28:08.929Z,9.47
2023-05-10T02:30:39.992Z,8.73
2023-05-10T02:33:11.383Z,9.67
2023-05-10T02:35:42.792Z,9.48
2023-05-10T02:38:15.283Z,8.63
2023-05-10T02:40:48.311Z,8.63
2023-05-10T02:43:20.287Z,8.45
2023-05-10T02:45:51.363Z,9.35
2023-05-10T02:48:22.147Z,8.58
2023-05-10T02:50:55.732Z,9.87
2023-05-10T02:53:32.083Z,11.97
2023-05-10T02:56:06.520Z,11.75
2023-05-10T02:58:39.576Z,10.43
2023-05-10T03:01:09.741Z,11.33
2023-05-10T03:03:40.363Z,10.17
2023-05-10T03:06:11.950Z,8.23
2023-05-10T03:08:42.590Z,9.78
2023-05-10T03:11:34.075Z,11.25
2023-05-10T03:14:13.954Z,10.53
2023-05-10T03:16:51.476Z,10.65
2023-05-10T03:19:52.025Z,10.72
2023-05-10T03:22:39.908Z,11.00
2023-05-10T03:25:12.790Z,8.43
2023-05-10T03:27:45.893Z,8.97
2023-05-10T03:30:17.813Z,8.60
2023-05-10T03:32:48.610Z,10.30
2023-05-10T03:35:19.366Z,9.77
2023-05-10T03:37:50.028Z,10.75
2023-05-10T03:40:22.038Z,9.15
2023-05-10T03:42:52.693Z,9.67
2023-05-10T03:45:23.795Z,13.90
2023-05-10T03:47:57.661Z,9.35
2023-05-10T03:50:28.616Z,10.75
2023-05-10T03:52:59.226Z,11.60
2023-05-10T03:55:30.534Z,11.30
2023-05-10T03:58:01.072Z,14.63
2023-05-10T04:00:32.629Z,10.98
2023-05-10T04:03:03.338Z,8.30
2023-05-10T04:05:34.073Z,10.63
2023-05-10T04:08:05.273Z,9.78
2023-05-10T04:10:35.934Z,10.70
2023-05-10T04:13:07.246Z,11.22
2023-05-10T04:15:37.957Z,13.13
2023-05-10T04:18:09.173Z,8.83
2023-05-10T04:20:39.799Z,8.63
2023-05-10T04:23:12.941Z,10.43
2023-05-10T04:25:44.365Z,11.55
2023-05-10T04:28:14.827Z,13.78
2023-05-10T04:30:46.829Z,11.63
2023-05-10T04:33:17.418Z,12.98
2023-05-10T04:35:48.026Z,14.73
2023-05-10T04:38:18.917Z,10.63
2023-05-10T04:40:49.473Z,9.13
2023-05-10T04:43:20.605Z,12.63
2023-05-10T04:45:53.347Z,9.55
2023-05-10T04:48:24.119Z,10.40
2023-05-10T04:50:54.921Z,13.08
2023-05-10T04:53:28.594Z,9.57
2023-05-10T04:55:59.220Z,9.45
2023-05-10T04:58:31.070Z,8.50
2023-05-10T05:01:11.301Z,8.40
2023-05-10T05:03:42.712Z,10.00
2023-05-10T05:06:14.959Z,12.73
2023-05-10T05:08:45.540Z,8.83
2023-05-10T05:11:16.416Z,18.30
2023-05-10T05:13:47.453Z,19.48
2023-05-10T05:16:18.547Z,7.30
2023-05-10T05:18:49.317Z,13.90
2023-05-10T05:21:22.852Z,17.17
2023-05-10T05:23:53.903Z,12.93
2023-05-10T05:26:26.084Z,12.53
2023-05-10T05:28:56.863Z,13.98
2023-05-10T05:31:27.606Z,16.05
2023-05-10T05:33:59.995Z,17.80
2023-05-10T05:36:32.285Z,12.40
2023-05-10T05:39:11.512Z,14.70
2023-05-10T05:41:38.813Z,11.90
2023-05-10T05:44:10.920Z,13.60
2023-05-10T05:46:41.725Z,12.70
2023-05-10T05:49:13.255Z,11.20
2023-05-10T05:51:44.063Z,8.53
2023-05-10T05:54:14.759Z,7.22
2023-05-10T05:56:45.436Z,8.65
2023-05-10T05:59:17.165Z,11.90
2023-05-10T06:01:47.900Z,7.45
2023-05-10T06:04:19.441Z,9.83
2023-05-10T06:06:53.795Z,8.93
2023-05-10T06:09:25.819Z,10.38
2023-05-10T06:11:56.666Z,9.98
2023-05-10T06:14:28.593Z,7.60
2023-05-10T06:17:00.582Z,8.45
2023-05-10T06:19:33.042Z,7.75
2023-05-10T06:22:04.050Z,9.53
2023-05-10T06:24:34.830Z,6.03
2023-05-10T06:27:08.090Z,9.63
2023-05-10T06:29:40.413Z,5.37
2023-05-10T06:32:11.933Z,5.67
2023-05-10T06:34:44.350Z,9.28
2023-05-10T06:37:15.202Z,9.18
2023-05-10T06:39:45.988Z,7.17
2023-05-10T06:42:16.977Z,8.55
2023-05-10T06:44:47.933Z,7.90
2023-05-10T06:47:19.252Z,7.22
2023-05-10T06:49:50.228Z,10.25
2023-05-10T06:52:20.817Z,6.37
2023-05-10T06:54:51.434Z,11.80
2023-05-10T06:57:31.112Z,9.83
2023-05-10T06:59:57.049Z,7.72
2023-05-10T07:02:29.534Z,6.35
2023-05-10T07:05:02.775Z,10.58
2023-05-10T07:07:33.676Z,9.05
2023-05-10T07:10:04.834Z,11.88
2023-05-10T07:12:37.901Z,7.20
2023-05-10T07:15:09.779Z,7.10
2023-05-10T07:17:41.853Z,7.97
2023-05-10T07:20:13.341Z,8.68
2023-05-10T07:22:45.942Z,7.80
2023-05-10T07:25:16.912Z,8.45
2023-05-10T07:27:50.477Z,6.92
2023-05-10T07:30:21.109Z,7.70
2023-05-10T07:32:51.778Z,8.23
2023-05-10T07:35:22.315Z,6.42
2023-05-10T07:37:53.264Z,6.25
2023-05-10T07:40:24.010Z,6.62
2023-05-10T07:42:56.221Z,8.35
2023-05-10T07:45:27.358Z,6.30
2023-05-10T07:47:59.560Z,5.92
2023-05-10T07:50:31.806Z,7.00
2023-05-10T07:53:02.535Z,5.87
2023-05-10T07:55:33.192Z,8.15
2023-05-10T07:58:03.782Z,10.05
2023-05-10T08:00:34.573Z,10.82
2023-05-10T08:03:05.637Z,9.45
2023-05-10T08:05:36.222Z,7.58
2023-05-10T08:08:07.052Z,7.33
2023-05-10T08:10:37.755Z,7.45
2023-05-10T08:13:08.420Z,7.62
2023-05-10T08:15:39.141Z,9.73
2023-05-10T08:18:13.121Z,8.78
2023-05-10T08:20:43.836Z,4.87
2023-05-10T08:23:17.449Z,8.40
2023-05-10T08:25:48.337Z,10.58
2023-05-10T08:28:19.069Z,4.28
2023-05-10T08:30:51.251Z,6.65
2023-05-10T08:33:21.906Z,6.55
2023-05-10T08:35:53.425Z,11.75
2023-05-10T08:38:23.983Z,4.40
2023-05-10T08:41:00.167Z,9.40
2023-05-10T08:43:31.461Z,9.85
2023-05-10T08:46:07.066Z,11.22
2023-05-10T08:48:39.394Z,12.75
2023-05-10T08:51:11.487Z,14.70
2023-05-10T08:53:42.165Z,16.12
2023-05-10T08:56:16.238Z,8.40
2023-05-10T08:58:47.157Z,11.48
2023-05-10T09:01:20.037Z,8.50
2023-05-10T09:03:54.498Z,8.78
2023-05-10T09:06:25.593Z,8.23
2023-05-10T09:08:56.701Z,10.25
2023-05-10T09:11:29.939Z,8.10
2023-05-10T09:14:00.703Z,10.43
2023-05-10T09:16:32.842Z,7.42
2023-05-10T09:19:04.537Z,11.25
2023-05-10T09:21:42.163Z,12.20
2023-05-10T09:24:15.005Z,11.55
2023-05-10T09:26:50.261Z,14.47
2023-05-10T09:29:20.945Z,10.93
2023-05-10T09:31:53.408Z,8.00
2023-05-10T09:34:32.310Z,13.68
2023-05-10T09:37:07.599Z,9.75
2023-05-10T09:39:39.422Z,7.25
2023-05-10T09:42:12.292Z,10.08
2023-05-10T09:44:44.458Z,10.30
2023-05-10T09:47:22.793Z,12.95
2023-05-10T09:49:56.150Z,15.80
2023-05-10T09:52:26.872Z,12.65
2023-05-10T09:54:57.538Z,18.90
2023-05-10T09:57:28.204Z,12.03
2023-05-10T10:00:00.281Z,8.73
2023-05-10T10:02:31.637Z,7.08
2023-05-10T10:05:05.825Z,9.70
2023-05-10T10:07:37.988Z,9.73
2023-05-10T10:10:11.516Z,10.35
2023-05-10T10:12:43.215Z,17.10
2023-05-10T10:15:16.612Z,14.50
2023-05-10T10:17:47.542Z,12.55
2023-05-10T10:20:19.863Z,9.43
2023-05-10T10:22:51.474Z,14.00
2023-05-10T10:25:23.450Z,9.83
2023-05-10T10:27:57.108Z,8.90
2023-05-10T10:30:33.681Z,10.03
2023-05-10T10:33:27.868Z,7.08
2023-05-10T10:35:52.513Z,8.28
2023-05-10T10:38:23.915Z,17.90
2023-05-10T10:41:15.238Z,12.53
2023-05-10T10:43:49.107Z,7.90
2023-05-10T10:46:21.799Z,9.50
2023-05-10T10:49:12.775Z,9.13
2023-05-10T10:51:46.328Z,9.53
2023-05-10T10:54:20.073Z,12.70
2023-05-10T10:56:56.666Z,10.32
2023-05-10T10:59:30.248Z,10.88
2023-05-10T11:02:01.688Z,20.55
2023-05-10T11:04:35.443Z,10.70
2023-05-10T11:07:21.692Z,8.95
2023-05-10T11:09:52.820Z,9.00
2023-05-10T11:12:24.405Z,7.17
2023-05-10T11:14:58.114Z,8.95
2023-05-10T11:17:32.711Z,7.37
2023-05-10T11:20:15.199Z,8.78
2023-05-10T11:22:53.542Z,7.42
2023-05-10T11:25:29.245Z,13.62
2023-05-10T11:28:01.696Z,7.55
2023-05-10T11:30:33.416Z,11.40
2023-05-10T11:33:04.120Z,12.70
2023-05-10T11:35:43.403Z,12.58
2023-05-10T11:38:15.169Z,10.18
2023-05-10T11:40:45.830Z,8.95
2023-05-10T11:43:16.536Z,10.10
2023-05-10T11:45:48.118Z,6.62
2023-05-10T11:48:20.494Z,8.88
2023-05-10T11:50:52.010Z,14.90
2023-05-10T11:53:23.772Z,12.35
2023-05-10T11:55:55.653Z,12.78
2023-05-10T11:58:27.391Z,11.88
2023-05-10T12:00:58.410Z,10.82
2023-05-10T12:03:32.765Z,12.65
2023-05-10T12:06:04.828Z,12.23
2023-05-10T12:08:35.786Z,15.68
2023-05-10T12:11:09.259Z,20.25
2023-05-10T12:13:41.346Z,26.57
2023-05-10T12:16:23.230Z,22.50
2023-05-10T12:18:57.005Z,15.83
2023-05-10T12:21:29.868Z,10.48
2023-05-10T12:24:06.621Z,11.60
2023-05-10T12:26:39.194Z,17.95
2023-05-10T12:29:18.062Z,10.40
2023-05-10T12:31:55.262Z,9.13
2023-05-10T12:34:37.258Z,10.50
2023-05-10T12:37:07.804Z,12.00
2023-05-10T12:39:43.990Z,12.20
2023-05-10T12:42:14.729Z,10.32
2023-05-10T12:44:46.897Z,8.90
2023-05-10T12:47:17.628Z,16.67
2023-05-10T12:49:48.184Z,16.48
2023-05-10T12:52:18.889Z,19.17
2023-05-10T12:54:50.275Z,12.45
2023-05-10T12:57:22.800Z,9.65
2023-05-10T12:59:53.396Z,11.33
2023-05-10T13:02:24.951Z,10.28
2023-05-10T13:04:55.799Z,13.00
2023-05-10T13:07:26.647Z,10.53
2023-05-10T13:09:57.237Z,12.03
2023-05-10T13:12:27.861Z,12.53
2023-05-10T13:14:58.504Z,9.70
2023-05-10T13:17:29.091Z,11.03
2023-05-10T13:19:59.600Z,10.23
2023-05-10T13:22:39.731Z,16.80
2023-05-10T13:25:04.263Z,7.58
2023-05-10T13:27:34.825Z,12.53
2023-05-10T13:30:06.681Z,11.20
2023-05-10T13:32:37.690Z,8.65
2023-05-10T13:35:08.996Z,9.68
2023-05-10T13:37:39.578Z,12.63
2023-05-10T13:40:12.419Z,7.15
2023-05-10T13:42:44.289Z,10.25
2023-05-10T13:45:15.044Z,11.28
2023-05-10T13:47:47.659Z,12.88
2023-05-10T13:50:19.640Z,9.95
2023-05-10T13:52:50.557Z,12.95
2023-05-10T13:55:21.452Z,18.48
2023-05-10T13:57:52.238Z,14.47
2023-05-10T14:00:22.951Z,9.63
2023-05-10T14:02:54.851Z,13.15
2023-05-10T14:05:27.313Z,10.80
2023-05-10T14:07:58.198Z,15.83
2023-05-10T14:10:29.974Z,27.52
2023-05-10T14:13:02.342Z,12.53
2023-05-10T14:15:32.882Z,14.10
2023-05-10T14:18:03.608Z,27.27
2023-05-10T14:20:34.707Z,21.90
2023-05-10T14:23:05.380Z,14.70
2023-05-10T14:25:36.309Z,16.70
2023-05-10T14:28:07.015Z,17.62
2023-05-10T14:30:37.695Z,17.20
2023-05-10T14:33:09.112Z,15.15
2023-05-10T14:35:39.798Z,12.03
2023-05-10T14:38:11.664Z,10.75
2023-05-10T14:40:42.849Z,7.65
2023-05-10T14:43:13.416Z,8.13
2023-05-10T14:45:44.395Z,8.05
2023-05-10T14:48:16.723Z,7.65
2023-05-10T14:50:47.897Z,11.00
2023-05-10T14:53:19.088Z,11.22
2023-05-10T14:55:50.220Z,10.25
2023-05-10T14:58:21.710Z,7.08
2023-05-10T15:00:53.852Z,10.25
2023-05-10T15:03:25.192Z,10.80
2023-05-10T15:05:58.069Z,14.20
2023-05-10T15:08:28.748Z,14.35
2023-05-10T15:11:00.046Z,13.85
2023-05-10T15:13:30.601Z,11.33
2023-05-10T15:16:01.469Z,9.70
2023-05-10T15:18:32.228Z,8.13
2023-05-10T15:21:02.779Z,7.20
2023-05-10T15:23:33.342Z,9.03
2023-05-10T15:26:04.035Z,10.00
2023-05-10T15:28:34.757Z,13.68
2023-05-10T15:31:05.415Z,8.60
2023-05-10T15:33:36.186Z,6.90
2023-05-10T15:36:07.568Z,11.50
2023-05-10T15:38:38.259Z,15.30
2023-05-10T15:41:08.863Z,10.25
2023-05-10T15:43:39.448Z,7.53
2023-05-10T15:46:10.000Z,9.98
2023-05-10T15:48:40.812Z,11.75
2023-05-10T15:51:11.336Z,6.33
2023-05-10T15:53:52.659Z,8.58
2023-05-10T15:56:14.585Z,12.30
2023-05-10T15:58:45.565Z,15.53
2023-05-10T16:01:18.160Z,11.38
2023-05-10T16:03:48.844Z,13.75
2023-05-10T16:06:19.447Z,9.93
2023-05-10T16:08:50.877Z,9.10
2023-05-10T16:11:24.058Z,8.00
2023-05-10T16:13:55.710Z,9.35
2023-05-10T16:16:26.577Z,10.15
2023-05-10T16:19:00.558Z,11.18
2023-05-10T16:21:34.364Z,14.75
2023-05-10T16:24:05.913Z,9.85
2023-05-10T16:26:38.218Z,11.25
2023-05-10T16:29:11.819Z,14.07
2023-05-10T16:31:43.371Z,13.72
2023-05-10T16:34:14.118Z,11.75
2023-05-10T16:36:46.412Z,13.85
2023-05-10T16:39:17.077Z,12.10
2023-05-10T16:41:47.763Z,10.50
2023-05-10T16:44:20.217Z,12.20
2023-05-10T16:46:51.053Z,9.80
2023-05-10T16:49:27.082Z,9.60
2023-05-10T16:51:57.762Z,9.70
2023-05-10T16:54:30.249Z,9.33
2023-05-10T16:57:02.126Z,10.88
2023-05-10T16:59:32.874Z,10.90
2023-05-10T17:02:03.552Z,9.45
2023-05-10T17:04:34.211Z,14.78
2023-05-10T17:07:04.975Z,12.88
2023-05-10T17:09:35.879Z,11.90
2023-05-10T17:12:07.072Z,11.05
2023-05-10T17:14:38.863Z,11.88
2023-05-10T17:17:10.038Z,8.58
2023-05-10T17:19:42.304Z,11.88
2023-05-10T17:22:14.345Z,11.25
2023-05-10T17:24:46.082Z,11.90
2023-05-10T17:27:16.764Z,21.60
2023-05-10T17:29:47.485Z,13.93
2023-05-10T17:32:18.051Z,14.93
2023-05-10T17:34:48.741Z,14.33
2023-05-10T17:37:19.391Z,14.60
2023-05-10T17:39:49.967Z,16.27
2023-05-10T17:42:20.852Z,16.23
2023-05-10T17:44:52.933Z,18.87
2023-05-10T17:47:24.626Z,19.57
2023-05-10T17:49:55.347Z,25.97
2023-05-10T17:52:26.155Z,11.85
2023-05-10T17:54:56.729Z,13.43
2023-05-10T17:57:27.380Z,13.10
2023-05-10T17:59:57.946Z,12.37
2023-05-10T18:02:30.183Z,16.87
2023-05-10T18:05:01.752Z,15.32
2023-05-10T18:07:32.732Z,10.60
2023-05-10T18:10:03.407Z,15.98
2023-05-10T18:12:33.922Z,13.72
2023-05-10T18:15:06.277Z,14.90
2023-05-10T18:17:36.885Z,15.20
2023-05-10T18:20:08.630Z,10.88
2023-05-10T18:22:39.352Z,16.80
2023-05-10T18:25:11.208Z,11.93
2023-05-10T18:27:42.362Z,11.28
2023-05-10T18:30:15.143Z,12.30
2023-05-10T18:32:46.627Z,10.05
2023-05-10T18:35:17.356Z,13.70
2023-05-10T18:37:48.786Z,12.23
2023-05-10T18:40:19.583Z,10.95
2023-05-10T18:42:50.537Z,11.45
2023-05-10T18:45:21.207Z,10.35
2023-05-10T18:47:52.138Z,10.15
2023-05-10T18:50:22.799Z,14.98
2023-05-10T18:52:53.918Z,11.95
2023-05-10T18:55:25.930Z,12.07
2023-05-10T18:58:01.811Z,12.55
2023-05-10T19:00:32.398Z,12.70
2023-05-10T19:03:03.052Z,17.92
2023-05-10T19:05:33.735Z,12.37
2023-05-10T19:08:04.430Z,17.70
2023-05-10T19:10:35.032Z,12.13
2023-05-10T19:13:07.744Z,12.90
2023-05-10T19:15:41.470Z,17.85
2023-05-10T19:18:11.989Z,15.72
2023-05-10T19:20:42.690Z,17.20
2023-05-10T19:23:14.021Z,16.87
2023-05-10T19:25:47.388Z,15.98
2023-05-10T19:28:19.233Z,12.75
2023-05-10T19:30:50.340Z,12.05
2023-05-10T19:33:22.719Z,24.87
2023-05-10T19:35:54.700Z,15.90
2023-05-10T19:38:27.137Z,10.30
2023-05-10T19:40:58.567Z,18.87
2023-05-10T19:43:35.928Z,18.92
2023-05-10T19:46:09.088Z,18.12
2023-05-10T19:48:39.773Z,17.45
2023-05-10T19:51:10.531Z,18.95
2023-05-10T19:53:42.833Z,21.05
2023-05-10T19:56:14.375Z,18.30
2023-05-10T19:58:45.019Z,12.88
2023-05-10T20:01:16.488Z,12.07
2023-05-10T20:03:47.506Z,12.98
2023-05-10T20:06:18.156Z,13.55
2023-05-10T20:08:48.701Z,14.28
2023-05-10T20:11:21.533Z,12.85
2023-05-10T20:13:53.152Z,17.60
2023-05-10T20:16:27.104Z,15.25
2023-05-10T20:18:56.867Z,13.15
2023-05-10T20:21:29.031Z,12.70
2023-05-10T20:23:59.735Z,13.78
2023-05-10T20:26:31.192Z,13.28
2023-05-10T20:29:01.866Z,23.60
2023-05-10T20:31:33.113Z,23.77
2023-05-10T20:34:03.798Z,16.77
2023-05-10T20:36:34.523Z,16.32
2023-05-10T20:39:05.419Z,16.80
2023-05-10T20:41:35.915Z,16.25
2023-05-10T20:44:06.789Z,18.45
2023-05-10T20:46:37.795Z,14.07
2023-05-10T20:49:10.471Z,17.52
2023-05-10T20:51:41.006Z,19.05
2023-05-10T20:54:13.296Z,13.95
2023-05-10T20:56:44.233Z,13.75
2023-05-10T20:59:15.662Z,14.00
2023-05-10T21:01:46.580Z,14.25
2023-05-10T21:04:18.631Z,12.98
2023-05-10T21:06:49.466Z,15.98
2023-05-10T21:09:22.599Z,15.68
2023-05-10T21:11:52.652Z,14.68
2023-05-10T21:14:24.069Z,15.43
2023-05-10T21:16:54.670Z,13.38
2023-05-10T21:19:25.242Z,15.93
2023-05-10T21:21:57.209Z,15.35
2023-05-10T21:24:28.088Z,15.08
2023-05-10T21:26:58.801Z,15.95
2023-05-10T21:29:29.500Z,15.98
2023-05-10T21:32:00.097Z,13.08
2023-05-10T21:34:31.163Z,13.48
2023-05-10T21:37:01.978Z,13.90
2023-05-10T21:39:32.666Z,16.20
2023-05-10T21:42:03.858Z,15.20
2023-05-10T21:44:34.616Z,20.77
2023-05-10T21:47:07.383Z,12.60
2023-05-10T21:49:39.503Z,14.43
2023-05-10T21:52:10.391Z,13.70
2023-05-10T21:54:42.064Z,13.78
2023-05-10T21:57:12.608Z,16.42
2023-05-10T21:59:43.188Z,16.50
2023-05-10T22:02:13.761Z,16.52
2023-05-10T22:04:44.417Z,13.43
2023-05-10T22:07:16.900Z,16.82
2023-05-10T22:09:47.573Z,17.12
2023-05-10T22:12:20.407Z,17.15
2023-05-10T22:15:06.493Z,13.78
2023-05-10T22:17:23.408Z,13.93
2023-05-10T22:19:53.952Z,16.95
2023-05-10T22:22:24.505Z,17.75
2023-05-10T22:24:56.140Z,13.98
2023-05-10T22:27:26.875Z,15.25
2023-05-10T22:29:58.162Z,13.58
2023-05-10T22:32:30.216Z,15.25
2023-05-10T22:35:00.794Z,16.55
2023-05-10T22:37:31.596Z,17.87
2023-05-10T22:40:02.317Z,15.35
2023-05-10T22:42:34.602Z,16.32
2023-05-10T22:45:07.286Z,17.73
2023-05-10T22:47:37.961Z,17.45
2023-05-10T22:50:10.777Z,17.17
2023-05-10T22:52:41.446Z,15.90
2023-05-10T22:55:13.322Z,17.37
2023-05-10T22:57:44.005Z,16.05
2023-05-10T23:00:15.573Z,14.15
2023-05-10T23:02:46.399Z,17.82
2023-05-10T23:05:17.316Z,18.45
2023-05-10T23:07:49.601Z,21.65
2023-05-10T23:10:21.941Z,13.43
2023-05-10T23:12:52.670Z,14.70
2023-05-10T23:15:23.200Z,13.32
2023-05-10T23:17:53.964Z,14.20
2023-05-10T23:20:24.815Z,15.68
2023-05-10T23:22:56.393Z,15.55
2023-05-10T23:25:27.015Z,16.80
2023-05-10T23:27:57.595Z,18.45
2023-05-10T23:30:28.243Z,14.23
2023-05-10T23:32:59.003Z,15.50
2023-05-10T23:35:30.567Z,16.52
2023-05-10T23:38:01.204Z,14.33
2023-05-10T23:40:31.758Z,15.23
2023-05-10T23:43:03.604Z,18.12
2023-05-10T23:45:34.538Z,19.15
2023-05-10T23:48:08.056Z,19.15
2023-05-10T23:50:38.644Z,18.32
2023-05-10T23:53:10.633Z,17.70
2023-05-10T23:55:41.437Z,18.70
2023-05-10T23:58:12.659Z,18.15
